createdAt,value
2022-11-22T00:01:19.920Z,7.40
2022-11-22T00:03:49.464Z,7.40
2022-11-22T00:06:17.690Z,7.30
2022-11-22T00:08:45.830Z,7.40
2022-11-22T00:11:14.111Z,7.30
2022-11-22T00:13:42.225Z,7.30
2022-11-22T00:16:10.586Z,7.30
2022-11-22T00:18:38.790Z,7.30
2022-11-22T00:21:09.507Z,7.30
2022-11-22T00:23:37.868Z,7.30
2022-11-22T00:26:07.299Z,7.20
2022-11-22T00:28:35.424Z,7.20
2022-11-22T00:31:03.828Z,7.20
2022-11-22T00:33:32.444Z,7.20
2022-11-22T00:36:00.588Z,7.10
2022-11-22T00:38:30.472Z,7.20
2022-11-22T00:40:58.894Z,7.10
2022-11-22T00:43:27.210Z,7.10
2022-11-22T00:45:55.404Z,7.20
2022-11-22T00:48:23.781Z,7.20
2022-11-22T00:50:51.829Z,7.00
2022-11-22T00:53:20.237Z,6.90
2022-11-22T00:55:50.692Z,6.90
2022-11-22T00:58:18.878Z,6.90
2022-11-22T01:00:47.409Z,6.90
2022-11-22T01:03:17.112Z,6.90
2022-11-22T01:05:45.233Z,6.90
2022-11-22T01:08:13.407Z,6.80
2022-11-22T01:10:41.935Z,6.80
2022-11-22T01:13:13.073Z,6.70
2022-11-22T01:15:41.155Z,6.90
2022-11-22T01:18:09.845Z,6.80
2022-11-22T01:20:37.978Z,6.70
2022-11-22T01:23:06.083Z,6.70
2022-11-22T01:25:34.742Z,6.70
2022-11-22T01:28:02.921Z,6.60
2022-11-22T01:30:32.394Z,6.50
2022-11-22T01:33:00.859Z,6.60
2022-11-22T01:35:28.938Z,6.60
2022-11-22T01:37:57.028Z,6.50
2022-11-22T01:40:25.602Z,6.60
2022-11-22T01:42:55.888Z,6.50
2022-11-22T01:45:56.688Z,6.60
2022-11-22T01:48:37.864Z,6.50
2022-11-22T01:51:10.732Z,6.60
2022-11-22T01:53:41.116Z,6.60
2022-11-22T01:56:15.805Z,6.60
2022-11-22T01:58:46.367Z,6.50
2022-11-22T02:01:16.666Z,6.50
2022-11-22T02:03:48.096Z,6.50
2022-11-22T02:06:17.478Z,6.40
2022-11-22T02:08:53.977Z,6.50
2022-11-22T02:11:23.378Z,6.50
2022-11-22T02:13:53.627Z,6.40
2022-11-22T02:16:24.056Z,6.40
2022-11-22T02:18:52.486Z,6.30
2022-11-22T02:21:20.753Z,6.40
2022-11-22T02:23:57.606Z,6.40
2022-11-22T02:26:29.560Z,6.30
2022-11-22T02:29:03.087Z,6.30
2022-11-22T02:31:39.589Z,6.30
2022-11-22T02:34:08.368Z,6.20
2022-11-22T02:36:40.475Z,6.20
2022-11-22T02:39:10.925Z,6.20
2022-11-22T02:41:41.452Z,6.10
2022-11-22T02:44:12.031Z,6.10
2022-11-22T02:46:48.869Z,6.10
2022-11-22T02:49:21.800Z,6.20
2022-11-22T02:51:50.169Z,6.10
2022-11-22T02:54:18.783Z,6.10
2022-11-22T02:56:48.620Z,6.10
2022-11-22T02:59:16.838Z,6.00
2022-11-22T03:01:46.618Z,6.10
2022-11-22T03:04:25.099Z,6.10
2022-11-22T03:06:55.347Z,6.00
2022-11-22T03:09:23.565Z,5.90
2022-11-22T03:11:54.062Z,5.90
2022-11-22T03:14:22.680Z,5.90
2022-11-22T03:16:51.010Z,5.90
2022-11-22T03:19:19.542Z,5.90
2022-11-22T03:21:47.776Z,5.90
2022-11-22T03:24:16.057Z,5.90
2022-11-22T03:26:49.323Z,5.80
2022-11-22T03:29:19.181Z,5.90
2022-11-22T03:31:47.444Z,5.90
2022-11-22T03:34:16.757Z,5.80
2022-11-22T03:36:45.025Z,5.90
2022-11-22T03:39:13.141Z,5.90
2022-11-22T03:41:41.587Z,5.90
2022-11-22T03:44:09.692Z,5.90
2022-11-22T03:46:39.218Z,6.00
2022-11-22T03:49:07.500Z,6.00
2022-11-22T03:51:35.566Z,6.00
2022-11-22T03:54:03.793Z,6.00
2022-11-22T03:56:32.218Z,6.00
2022-11-22T03:59:00.345Z,6.10
2022-11-22T04:01:28.608Z,6.00
2022-11-22T04:03:58.694Z,6.00
2022-11-22T04:06:26.896Z,6.00
2022-11-22T04:08:55.031Z,6.00
2022-11-22T04:11:23.410Z,6.00
2022-11-22T04:14:08.710Z,6.10
2022-11-22T04:16:37.168Z,6.10
2022-11-22T04:19:06.638Z,6.10
2022-11-22T04:21:36.756Z,6.10
2022-11-22T04:24:24.952Z,6.10
2022-11-22T04:26:53.726Z,6.20
2022-11-22T04:29:22.782Z,6.20
2022-11-22T04:32:09.845Z,6.30
2022-11-22T04:34:39.482Z,6.20
2022-11-22T04:37:07.801Z,6.20
2022-11-22T04:39:36.199Z,6.10
2022-11-22T04:42:21.816Z,6.10
2022-11-22T04:44:50.370Z,6.20
2022-11-22T04:47:33.795Z,6.20
2022-11-22T04:50:03.955Z,6.10
2022-11-22T04:52:49.681Z,6.10
2022-11-22T04:55:18.418Z,6.10
2022-11-22T04:57:46.503Z,5.90
2022-11-22T05:00:15.199Z,5.90
2022-11-22T05:02:43.810Z,5.90
2022-11-22T05:05:13.325Z,5.90
2022-11-22T05:07:41.723Z,5.90
2022-11-22T05:10:12.312Z,6.00
2022-11-22T05:12:42.625Z,6.00
2022-11-22T05:15:11.851Z,6.00
2022-11-22T05:17:40.517Z,5.90
2022-11-22T05:20:10.421Z,5.90
2022-11-22T05:22:57.395Z,6.00
2022-11-22T05:25:25.963Z,5.90
2022-11-22T05:27:57.040Z,5.90
2022-11-22T05:30:25.645Z,6.00
2022-11-22T05:32:53.825Z,5.90
2022-11-22T05:35:22.049Z,6.00
2022-11-22T05:37:52.242Z,6.10
2022-11-22T05:40:20.330Z,6.10
2022-11-22T05:42:48.455Z,6.20
2022-11-22T05:45:16.812Z,6.20
2022-11-22T05:47:44.974Z,6.20
2022-11-22T05:50:13.660Z,6.20
2022-11-22T05:52:42.411Z,6.10
2022-11-22T05:55:11.951Z,6.20
2022-11-22T05:57:40.091Z,6.20
2022-11-22T06:00:09.545Z,6.20
2022-11-22T06:02:37.731Z,6.30
2022-11-22T06:05:06.361Z,6.40
2022-11-22T06:07:35.100Z,6.40
2022-11-22T06:10:03.321Z,6.30
2022-11-22T06:12:32.824Z,6.30
2022-11-22T06:15:01.608Z,6.40
2022-11-22T06:17:29.737Z,6.50
2022-11-22T06:20:02.695Z,6.60
2022-11-22T06:22:34.124Z,6.60
2022-11-22T06:25:02.320Z,6.60
2022-11-22T06:27:30.537Z,6.50
2022-11-22T06:30:00.207Z,6.40
2022-11-22T06:32:28.364Z,6.50
2022-11-22T06:34:56.528Z,6.50
2022-11-22T06:37:24.925Z,6.40
2022-11-22T06:39:53.299Z,6.50
2022-11-22T06:42:21.375Z,6.50
2022-11-22T06:44:49.653Z,6.50
2022-11-22T06:47:19.425Z,6.30
2022-11-22T06:49:47.496Z,6.40
2022-11-22T06:52:16.020Z,6.40
2022-11-22T06:54:44.167Z,6.40
2022-11-22T06:57:14.754Z,6.40
2022-11-22T06:59:43.120Z,6.40
2022-11-22T07:02:13.133Z,6.40
2022-11-22T07:05:02.341Z,6.50
2022-11-22T07:07:31.422Z,6.50
2022-11-22T07:09:59.601Z,6.50
2022-11-22T07:12:27.851Z,6.50
2022-11-22T07:14:56.466Z,6.60
2022-11-22T07:17:24.713Z,6.50
2022-11-22T07:19:54.162Z,6.50
2022-11-22T07:22:22.754Z,6.50
2022-11-22T07:24:50.838Z,6.60
2022-11-22T07:27:18.969Z,6.60
2022-11-22T07:29:47.382Z,6.60
2022-11-22T07:32:15.456Z,6.60
2022-11-22T07:34:43.561Z,6.60
2022-11-22T07:37:13.235Z,6.60
2022-11-22T07:39:41.324Z,6.60
2022-11-22T07:42:09.514Z,6.60
2022-11-22T07:44:37.761Z,6.50
2022-11-22T07:47:05.977Z,6.60
2022-11-22T07:49:34.091Z,6.60
2022-11-22T07:52:03.601Z,6.70
2022-11-22T07:54:33.115Z,6.70
2022-11-22T07:57:01.221Z,6.80
2022-11-22T07:59:29.823Z,6.80
2022-11-22T08:01:58.401Z,6.80
2022-11-22T08:04:26.525Z,6.80
2022-11-22T08:06:54.852Z,6.80
2022-11-22T08:09:23.086Z,6.70
2022-11-22T08:11:52.765Z,6.70
2022-11-22T08:14:21.172Z,6.80
2022-11-22T08:16:49.379Z,6.80
2022-11-22T08:19:18.059Z,6.80
2022-11-22T08:21:46.763Z,6.90
2022-11-22T08:24:15.609Z,6.90
2022-11-22T08:26:44.148Z,6.90
2022-11-22T08:29:14.800Z,6.90
2022-11-22T08:31:43.117Z,6.90
2022-11-22T08:34:11.408Z,6.90
2022-11-22T08:36:40.030Z,6.90
2022-11-22T08:39:08.334Z,6.90
2022-11-22T08:41:36.762Z,7.00
2022-11-22T08:44:05.278Z,7.00
2022-11-22T08:46:34.770Z,7.00
2022-11-22T08:49:03.977Z,7.10
2022-11-22T08:51:32.659Z,7.10
2022-11-22T08:54:00.727Z,7.20
2022-11-22T08:56:29.193Z,7.20
2022-11-22T08:58:57.533Z,7.20
2022-11-22T09:01:25.913Z,7.20
2022-11-22T09:03:55.537Z,7.20
2022-11-22T09:12:00.406Z,7.40
2022-11-22T09:14:28.885Z,7.30
2022-11-22T09:16:57.037Z,7.40
2022-11-22T09:19:26.903Z,7.50
2022-11-22T09:21:55.423Z,7.40
2022-11-22T09:24:23.563Z,7.40
2022-11-22T09:26:51.891Z,7.40
2022-11-22T09:29:20.149Z,7.50
2022-11-22T09:31:48.331Z,7.50
2022-11-22T09:34:16.593Z,7.60
2022-11-22T09:36:46.380Z,7.60
2022-11-22T09:39:14.529Z,7.70
2022-11-22T09:42:10.806Z,7.70
2022-11-22T09:44:59.980Z,7.80
2022-11-22T09:47:38.002Z,7.80
2022-11-22T09:50:17.326Z,7.90
2022-11-22T09:52:50.945Z,8.00
2022-11-22T09:55:24.355Z,7.90
2022-11-22T09:58:02.340Z,8.00
2022-11-22T10:00:31.257Z,8.00
2022-11-22T10:03:06.867Z,8.00
2022-11-22T10:05:44.251Z,7.90
2022-11-22T10:08:31.005Z,8.00
2022-11-22T10:11:00.997Z,8.00
2022-11-22T10:13:35.481Z,8.10
2022-11-22T10:16:11.890Z,8.10
2022-11-22T10:18:43.590Z,8.10
2022-11-22T10:21:14.655Z,8.20
2022-11-22T10:23:46.594Z,8.20
2022-11-22T10:26:22.670Z,8.30
2022-11-22T10:29:00.154Z,8.30
2022-11-22T10:31:36.897Z,8.30
2022-11-22T10:34:11.249Z,8.30
2022-11-22T10:36:50.357Z,8.20
2022-11-22T10:39:38.494Z,8.10
2022-11-22T10:42:20.805Z,8.20
2022-11-22T10:44:56.866Z,8.00
2022-11-22T10:47:40.894Z,8.20
2022-11-22T10:50:14.035Z,8.20
2022-11-22T10:52:51.141Z,8.20
2022-11-22T10:55:34.749Z,8.20
2022-11-22T10:58:09.909Z,8.20
2022-11-22T11:00:43.393Z,8.30
2022-11-22T11:03:21.665Z,8.30
2022-11-22T11:06:22.709Z,8.30
2022-11-22T11:11:36.130Z,8.30
2022-11-22T11:14:09.778Z,8.20
2022-11-22T11:16:38.913Z,8.30
2022-11-22T11:19:17.658Z,8.40
2022-11-22T11:21:46.379Z,8.40
2022-11-22T11:24:16.903Z,8.50
2022-11-22T11:26:55.451Z,8.50
2022-11-22T11:29:39.174Z,8.60
2022-11-22T11:32:10.364Z,8.60
2022-11-22T11:34:40.105Z,8.60
2022-11-22T11:37:22.649Z,8.70
2022-11-22T11:39:50.864Z,8.70
2022-11-22T11:42:26.480Z,8.80
2022-11-22T11:44:55.250Z,8.90
2022-11-22T11:47:35.405Z,8.90
2022-11-22T11:50:03.531Z,8.90
2022-11-22T11:52:32.334Z,9.00
2022-11-22T11:55:02.872Z,9.00
2022-11-22T11:57:36.067Z,9.00
2022-11-22T12:00:07.413Z,9.00
2022-11-22T12:02:40.839Z,9.10
2022-11-22T12:05:27.682Z,9.20
2022-11-22T12:07:56.352Z,9.10
2022-11-22T12:10:40.533Z,9.10
2022-11-22T12:13:19.156Z,9.20
2022-11-22T12:15:57.261Z,9.20
2022-11-22T12:18:42.813Z,9.30
2022-11-22T12:21:20.175Z,9.30
2022-11-22T12:23:53.016Z,9.30
2022-11-22T12:26:22.044Z,9.40
2022-11-22T12:28:52.067Z,9.40
2022-11-22T12:31:31.002Z,9.50
2022-11-22T12:34:03.842Z,9.50
2022-11-22T12:36:43.111Z,9.50
2022-11-22T12:39:17.324Z,9.60
2022-11-22T12:41:47.921Z,9.60
2022-11-22T12:44:19.805Z,9.60
2022-11-22T12:46:51.989Z,9.50
2022-11-22T12:49:34.044Z,9.60
2022-11-22T12:52:13.000Z,9.70
2022-11-22T12:54:46.753Z,9.70
2022-11-22T12:57:20.215Z,9.70
2022-11-22T12:59:58.690Z,9.70
2022-11-22T13:02:34.764Z,9.80
2022-11-22T13:05:07.062Z,10.00
2022-11-22T13:07:48.613Z,10.10
2022-11-22T13:10:32.581Z,10.10
2022-11-22T13:13:02.163Z,10.00
2022-11-22T13:15:34.454Z,10.00
2022-11-22T13:18:02.914Z,10.20
2022-11-22T13:20:42.695Z,10.30
2022-11-22T13:23:26.796Z,10.30
2022-11-22T13:26:10.365Z,10.30
2022-11-22T13:28:42.677Z,10.40
2022-11-22T13:31:20.776Z,10.50
2022-11-22T13:33:59.955Z,10.50
2022-11-22T13:36:46.498Z,10.40
2022-11-22T13:39:20.000Z,10.40
2022-11-22T13:42:05.427Z,10.40
2022-11-22T13:44:49.892Z,10.40
2022-11-22T13:47:53.258Z,10.40
2022-11-22T13:50:57.849Z,10.40
2022-11-22T13:53:29.138Z,10.30
2022-11-22T13:55:59.152Z,10.30
2022-11-22T13:59:04.587Z,10.30
2022-11-22T14:01:58.291Z,10.40
2022-11-22T14:04:44.935Z,10.50
2022-11-22T14:07:35.283Z,10.40
2022-11-22T14:10:06.032Z,10.50
2022-11-22T14:13:05.400Z,10.60
2022-11-22T14:15:55.595Z,10.60
2022-11-22T14:18:47.047Z,10.60
2022-11-22T14:21:25.985Z,10.50
2022-11-22T14:24:07.030Z,10.40
2022-11-22T14:26:42.980Z,10.40
2022-11-22T14:29:54.762Z,10.40
2022-11-22T14:32:25.108Z,10.30
2022-11-22T14:35:29.829Z,10.40
2022-11-22T14:38:06.671Z,10.40
2022-11-22T14:40:37.737Z,10.20
2022-11-22T14:43:29.182Z,10.30
2022-11-22T14:46:02.525Z,10.10
2022-11-22T14:48:34.877Z,10.00
2022-11-22T14:51:16.273Z,9.90
2022-11-22T14:53:52.308Z,9.90
2022-11-22T14:56:26.439Z,9.90
2022-11-22T14:59:07.007Z,9.80
2022-11-22T15:01:56.808Z,9.80
2022-11-22T15:09:18.388Z,9.60
2022-11-22T15:09:19.457Z,9.60
2022-11-22T15:11:14.513Z,9.60
2022-11-22T15:14:05.867Z,9.40
2022-11-22T15:57:27.914Z,9.50
2022-11-22T15:59:56.849Z,9.50
2022-11-22T16:02:30.264Z,9.60
2022-11-22T16:06:05.313Z,9.50
2022-11-22T16:07:53.702Z,9.40
2022-11-22T16:10:25.341Z,9.50
2022-11-22T16:12:55.583Z,9.50
2022-11-22T16:15:36.516Z,9.50
2022-11-22T16:18:15.714Z,9.50
2022-11-22T16:20:59.149Z,9.50
2022-11-22T16:23:28.430Z,9.50
2022-11-22T16:26:00.117Z,9.50
2022-11-22T16:28:34.424Z,9.60
2022-11-22T16:31:06.553Z,9.60
2022-11-22T16:33:36.215Z,9.60
2022-11-22T16:36:07.028Z,9.50
2022-11-22T16:38:35.125Z,9.40
2022-11-22T16:41:03.987Z,9.50
2022-11-22T16:43:36.053Z,9.50
2022-11-22T16:46:05.384Z,9.60
2022-11-22T16:48:34.970Z,9.60
2022-11-22T16:51:07.967Z,9.70
2022-11-22T16:53:41.723Z,9.60
2022-11-22T16:56:14.307Z,9.60
2022-11-22T16:58:42.467Z,9.70
2022-11-22T17:01:12.916Z,9.60
2022-11-22T17:03:43.522Z,9.60
2022-11-22T17:06:18.656Z,9.60
2022-11-22T17:08:47.586Z,9.60
2022-11-22T17:11:17.787Z,9.60
2022-11-22T17:13:46.807Z,9.60
2022-11-22T17:16:17.832Z,9.70
2022-11-22T17:18:48.591Z,9.80
2022-11-22T17:21:22.550Z,9.80
2022-11-22T17:23:51.078Z,9.90
2022-11-22T17:26:19.454Z,9.80
2022-11-22T17:28:47.772Z,9.70
2022-11-22T17:31:18.801Z,9.70
2022-11-22T17:33:51.965Z,9.60
2022-11-22T17:36:24.291Z,9.60
2022-11-22T17:38:52.494Z,9.70
2022-11-22T17:41:20.818Z,9.80
2022-11-22T17:43:48.918Z,9.80
2022-11-22T17:46:17.171Z,9.70
2022-11-22T17:48:45.435Z,9.60
2022-11-22T17:51:15.005Z,9.60
2022-11-22T17:53:45.890Z,9.70
2022-11-22T17:56:14.339Z,9.70
2022-11-22T17:58:43.059Z,9.70
2022-11-22T18:01:13.436Z,9.70
2022-11-22T18:03:42.789Z,9.60
2022-11-22T18:06:12.824Z,9.80
2022-11-22T18:08:46.578Z,9.70
2022-11-22T18:11:16.443Z,9.70
2022-11-22T18:13:45.447Z,9.60
2022-11-22T18:16:15.744Z,9.60
2022-11-22T18:18:59.535Z,9.40
2022-11-22T18:21:30.402Z,9.30
2022-11-22T18:24:00.386Z,9.40
2022-11-22T18:26:44.419Z,9.50
2022-11-22T18:32:02.279Z,9.40
2022-11-22T18:34:30.906Z,9.40
2022-11-22T18:37:03.922Z,9.40
2022-11-22T18:39:36.836Z,9.40
2022-11-22T18:42:05.887Z,9.50
2022-11-22T18:44:34.245Z,9.50
2022-11-22T18:47:02.861Z,9.50
2022-11-22T18:49:31.349Z,9.60
2022-11-22T18:51:59.950Z,9.60
2022-11-22T18:54:29.552Z,9.70
2022-11-22T19:01:01.447Z,9.70
2022-11-22T19:03:32.003Z,9.60
2022-11-22T19:06:00.698Z,9.60
2022-11-22T19:08:31.961Z,9.70
2022-11-22T19:11:00.492Z,9.80
2022-11-22T19:13:29.846Z,9.80
2022-11-22T19:16:06.895Z,9.80
2022-11-22T19:18:42.918Z,9.80
2022-11-22T19:39:33.500Z,10.00
2022-11-22T19:42:01.789Z,10.00
2022-11-22T19:44:30.738Z,10.00
2022-11-22T19:46:59.223Z,10.00
2022-11-22T19:49:27.709Z,10.00
2022-11-22T19:51:55.877Z,10.00
2022-11-22T19:54:24.256Z,10.00
2022-11-22T19:56:53.860Z,10.00
2022-11-22T19:59:22.098Z,10.00
2022-11-22T20:01:50.448Z,10.00
2022-11-22T20:04:18.671Z,10.00
2022-11-22T20:06:50.172Z,10.00
2022-11-22T20:09:18.947Z,10.00
2022-11-22T20:11:47.173Z,10.00
2022-11-22T20:14:17.117Z,10.00
2022-11-22T20:16:45.904Z,10.00
2022-11-22T20:19:15.492Z,10.10
2022-11-22T20:21:43.706Z,10.10
2022-11-22T20:24:13.352Z,10.10
2022-11-22T20:26:42.598Z,10.10
2022-11-22T20:29:15.257Z,10.10
2022-11-22T20:31:44.940Z,10.10
2022-11-22T20:34:15.082Z,10.20
2022-11-22T20:36:43.692Z,10.10
2022-11-22T20:39:12.004Z,10.10
2022-11-22T20:41:41.136Z,10.10
2022-11-22T20:44:13.490Z,10.10
2022-11-22T20:46:42.652Z,10.10
2022-11-22T20:49:12.510Z,10.10
2022-11-22T20:51:41.700Z,10.20
2022-11-22T20:54:10.667Z,10.10
2022-11-22T20:56:39.329Z,10.00
2022-11-22T20:59:07.655Z,10.10
2022-11-22T21:01:36.106Z,10.10
2022-11-22T21:04:04.680Z,10.10
2022-11-22T21:06:35.201Z,9.90
2022-11-22T21:09:03.998Z,10.00
2022-11-22T21:11:32.262Z,9.90
2022-11-22T21:14:00.757Z,9.90
2022-11-22T21:16:30.222Z,9.90
2022-11-22T21:19:01.478Z,9.90
2022-11-22T21:21:30.540Z,9.90
2022-11-22T21:24:01.730Z,9.90
2022-11-22T21:26:30.812Z,9.90
2022-11-22T21:28:59.577Z,9.90
2022-11-22T21:31:29.243Z,10.00
2022-11-22T21:33:57.810Z,10.00
2022-11-22T21:36:26.335Z,10.00
2022-11-22T21:38:54.551Z,9.90
2022-11-22T21:41:39.257Z,9.90
2022-11-22T21:44:08.548Z,9.90
2022-11-22T21:46:36.758Z,10.00
2022-11-22T21:49:04.851Z,10.00
2022-11-22T21:51:33.322Z,9.90
2022-11-22T21:54:02.892Z,9.90
2022-11-22T21:56:32.825Z,9.90
2022-11-22T21:59:01.231Z,10.00
2022-11-22T22:01:30.244Z,9.90
2022-11-22T22:03:58.646Z,9.90
2022-11-22T22:06:26.863Z,9.80
2022-11-22T22:08:55.279Z,9.80
2022-11-22T22:11:23.998Z,10.00
2022-11-22T22:13:55.709Z,9.90
2022-11-22T22:16:26.159Z,9.80
2022-11-22T22:18:55.044Z,9.80
2022-11-22T22:21:23.492Z,9.70
2022-11-22T22:23:51.888Z,9.80
2022-11-22T22:26:20.329Z,9.70
2022-11-22T22:28:48.423Z,9.80
2022-11-22T22:31:21.919Z,9.80
2022-11-22T22:33:51.671Z,9.80
2022-11-22T22:36:20.186Z,9.70
2022-11-22T22:38:49.331Z,9.70
2022-11-22T22:41:17.951Z,9.70
2022-11-22T22:43:48.886Z,9.80
2022-11-22T22:46:20.549Z,9.80
2022-11-22T22:48:49.598Z,9.70
2022-11-22T22:51:19.503Z,9.80
2022-11-22T22:53:48.622Z,9.80
2022-11-22T22:56:18.449Z,9.80
2022-11-22T22:58:47.043Z,9.80
2022-11-22T23:01:19.020Z,9.70
2022-11-22T23:03:49.521Z,9.80
2022-11-22T23:06:18.549Z,9.70
2022-11-22T23:08:48.346Z,9.80
2022-11-22T23:11:19.107Z,9.80
2022-11-22T23:13:47.311Z,9.80
2022-11-22T23:16:16.307Z,9.90
2022-11-22T23:18:46.474Z,9.90
2022-11-22T23:21:16.137Z,9.80
2022-11-22T23:23:44.499Z,9.90
2022-11-22T23:26:13.983Z,9.90
2022-11-22T23:28:42.147Z,9.80
2022-11-22T23:31:12.408Z,9.80
2022-11-22T23:33:41.735Z,9.90
2022-11-22T23:36:13.632Z,9.90
2022-11-22T23:38:42.249Z,9.90
2022-11-22T23:41:12.043Z,9.90
2022-11-22T23:43:40.259Z,10.00
2022-11-22T23:46:16.038Z,9.80
2022-11-22T23:48:44.923Z,9.80
2022-11-22T23:51:15.834Z,9.70
2022-11-22T23:53:43.965Z,9.70
2022-11-22T23:56:17.961Z,9.70
2022-11-22T23:58:49.801Z,9.80
